aviador You're here:

KFLO Decoded Metar

FLORENCE in SC, USA
Report Time2017-07-21 13:53:00
UTC Time2017-07-21 14:49:03
Flight Rules vfr VFR
Wind210° at 06 kt
W.Decomp.*RWY 19: 5.4 kt HW 2.5 kt RCW
RWY 27: 3.4 kt HW 4.9 kt LCW
W.Rank210° ranks 4
Current wind is below 210° avg. (6.5)
Visibility9999 m
Phenomena:N/A
Clouds:N/A
Expected CloudBase > 2,000 ft AGL from Temp-Dew spread
CeilingNone
Temp28°C (ISA +13)
Dew Point23°C (74% RH)
Heat Index31.2°C
QNH1018 hPa
Density Alt1,873 ft
Elevation144 ft
Report Wrong Elevation
Raw Report
METAR KFLO 211353Z 21006KT 10SM CLR 28/23 A3005 RMK AO2 SLP172 T02830233=

Extra information for KFLO:More info

Metar Taf Metar & Taf Last 4 Metars F.Rules Stats Wind Profile Meteogram Temp Stats Airport Information Weather charts Add Link Nearby VenuesMetar ALERT Operation Metar Decoded Social comments

AIRNAV info for KFLO